sensor_id;sensor_type;location;lat;lon;timestamp;pressure;altitude;pressure_sealevel;temperature;humidity
58239;BME280;44037;55.638;37.356;2023-07-13T00:00:50;98236.88;;;12.59;100.00
58239;BME280;44037;55.638;37.356;2023-07-13T00:03:17;98241.31;;;12.54;100.00
58239;BME280;44037;55.638;37.356;2023-07-13T00:05:44;98239.75;;;12.47;100.00
58239;BME280;44037;55.638;37.356;2023-07-13T00:08:11;98238.91;;;12.47;100.00
58239;BME280;44037;55.638;37.356;2023-07-13T00:10:41;98246.63;;;12.50;100.00
58239;BME280;44037;55.638;37.356;2023-07-13T00:13:09;98247.44;;;12.52;100.00
58239;BME280;44037;55.638;37.356;2023-07-13T00:15:36;98238.00;;;12.48;100.00
58239;BME280;44037;55.638;37.356;2023-07-13T00:18:03;98242.38;;;12.46;100.00
58239;BME280;44037;55.638;37.356;2023-07-13T00:20:31;98246.69;;;12.47;100.00
58239;BME280;44037;55.638;37.356;2023-07-13T00:22:59;98244.00;;;12.50;100.00
58239;BME280;44037;55.638;37.356;2023-07-13T00:25:26;98249.16;;;12.53;100.00
58239;BME280;44037;55.638;37.356;2023-07-13T00:27:55;98245.66;;;12.54;100.00
58239;BME280;44037;55.638;37.356;2023-07-13T00:30:22;98239.72;;;12.49;100.00
58239;BME280;44037;55.638;37.356;2023-07-13T00:32:50;98236.31;;;12.47;100.00
58239;BME280;44037;55.638;37.356;2023-07-13T00:35:17;98239.72;;;12.49;100.00
58239;BME280;44037;55.638;37.356;2023-07-13T00:37:45;98235.31;;;12.52;100.00
58239;BME280;44037;55.638;37.356;2023-07-13T00:40:13;98243.03;;;12.55;100.00
58239;BME280;44037;55.638;37.356;2023-07-13T00:42:41;98239.69;;;12.50;100.00
58239;BME280;44037;55.638;37.356;2023-07-13T00:48:11;98243.28;;;12.44;100.00
58239;BME280;44037;55.638;37.356;2023-07-13T00:50:38;98242.34;;;12.47;100.00
58239;BME280;44037;55.638;37.356;2023-07-13T00:53:07;98249.22;;;12.50;100.00
58239;BME280;44037;55.638;37.356;2023-07-13T00:55:35;98243.28;;;12.44;100.00
58239;BME280;44037;55.638;37.356;2023-07-13T00:58:03;98245.09;;;12.39;100.00
58239;BME280;44037;55.638;37.356;2023-07-13T01:00:30;98242.50;;;12.41;100.00
58239;BME280;44037;55.638;37.356;2023-07-13T01:02:57;98239.78;;;12.46;100.00
58239;BME280;44037;55.638;37.356;2023-07-13T01:05:26;98237.97;;;12.49;100.00
58239;BME280;44037;55.638;37.356;2023-07-13T01:07:54;98243.13;;;12.51;100.00
58239;BME280;44037;55.638;37.356;2023-07-13T01:10:22;98242.38;;;12.46;100.00
58239;BME280;44037;55.638;37.356;2023-07-13T01:12:49;98243.28;;;12.44;100.00
58239;BME280;44037;55.638;37.356;2023-07-13T01:15:37;98237.97;;;12.49;100.00
58239;BME280;44037;55.638;37.356;2023-07-13T01:18:06;98237.03;;;12.53;100.00
58239;BME280;44037;55.638;37.356;2023-07-13T01:20:36;98227.44;;;12.55;100.00
58239;BME280;44037;55.638;37.356;2023-07-13T01:23:08;98231.91;;;12.49;100.00
58239;BME280;44037;55.638;37.356;2023-07-13T01:25:36;98233.72;;;12.45;100.00
58239;BME280;44037;55.638;37.356;2023-07-13T01:28:06;98229.34;;;12.47;100.00
58239;BME280;44037;55.638;37.356;2023-07-13T01:30:34;98237.09;;;12.50;100.00
58239;BME280;44037;55.638;37.356;2023-07-13T01:33:02;98235.22;;;12.55;100.00
58239;BME280;44037;55.638;37.356;2023-07-13T01:35:29;98237.03;;;12.53;100.00
58239;BME280;44037;55.638;37.356;2023-07-13T01:37:56;98223.28;;;12.48;100.00
58239;BME280;44037;55.638;37.356;2023-07-13T01:40:27;98214.59;;;12.49;100.00
58239;BME280;44037;55.638;37.356;2023-07-13T01:42:55;98224.00;;;12.55;100.00
58239;BME280;44037;55.638;37.356;2023-07-13T01:45:22;98220.41;;;12.60;100.00
58239;BME280;44037;55.638;37.356;2023-07-13T01:47:50;98216.94;;;12.62;100.00
58239;BME280;44037;55.638;37.356;2023-07-13T01:50:17;98211.00;;;12.55;100.00
58239;BME280;44037;55.638;37.356;2023-07-13T01:52:44;98209.25;;;12.55;100.00
58239;BME280;44037;55.638;37.356;2023-07-13T01:55:11;98211.75;;;12.62;100.00
58239;BME280;44037;55.638;37.356;2023-07-13T01:57:40;98203.78;;;12.69;100.00
58239;BME280;44037;55.638;37.356;2023-07-13T02:00:10;98195.88;;;12.74;100.00
58239;BME280;44037;55.638;37.356;2023-07-13T02:02:38;98189.03;;;12.70;100.00
58239;BME280;44037;55.638;37.356;2023-07-13T02:05:06;98190.84;;;12.66;100.00
58239;BME280;44037;55.638;37.356;2023-07-13T02:07:33;98195.03;;;12.72;100.00
58239;BME280;44037;55.638;37.356;2023-07-13T02:10:00;98192.28;;;12.80;100.00
58239;BME280;44037;55.638;37.356;2023-07-13T02:12:29;98198.13;;;12.89;100.00
58239;BME280;44037;55.638;37.356;2023-07-13T02:14:58;98206.75;;;12.92;100.00
58239;BME280;44037;55.638;37.356;2023-07-13T02:17:26;98201.69;;;12.85;100.00
58239;BME280;44037;55.638;37.356;2023-07-13T02:19:54;98205.06;;;12.89;100.00
58239;BME280;44037;55.638;37.356;2023-07-13T02:22:21;98202.28;;;12.97;100.00
58239;BME280;44037;55.638;37.356;2023-07-13T02:24:49;98208.13;;;13.06;100.00
58239;BME280;44037;55.638;37.356;2023-07-13T02:27:16;98210.69;;;13.08;100.00
58239;BME280;44037;55.638;37.356;2023-07-13T02:29:43;98198.75;;;12.99;100.00
58239;BME280;44037;55.638;37.356;2023-07-13T02:32:12;98199.69;;;12.97;100.00
58239;BME280;44037;55.638;37.356;2023-07-13T02:34:40;98198.66;;;13.04;100.00
58239;BME280;44037;55.638;37.356;2023-07-13T02:37:08;98193.19;;;13.15;100.00
58239;BME280;44037;55.638;37.356;2023-07-13T02:39:35;98189.44;;;13.27;100.00
58239;BME280;44037;55.638;37.356;2023-07-13T02:42:03;98190.34;;;13.24;100.00
58239;BME280;44037;55.638;37.356;2023-07-13T02:44:30;98188.72;;;13.20;100.00
58239;BME280;44037;55.638;37.356;2023-07-13T02:46:57;98187.69;;;13.27;100.00
58239;BME280;44037;55.638;37.356;2023-07-13T02:49:26;98185.78;;;13.34;100.00
58239;BME280;44037;55.638;37.356;2023-07-13T02:51:53;98194.31;;;13.41;100.00
58239;BME280;44037;55.638;37.356;2023-07-13T02:54:20;98196.06;;;13.39;100.00
58239;BME280;44037;55.638;37.356;2023-07-13T02:56:48;98187.69;;;13.27;100.00
58239;BME280;44037;55.638;37.356;2023-07-13T02:59:15;98187.75;;;13.24;100.00
58239;BME280;44037;55.638;37.356;2023-07-13T03:01:42;98179.84;;;13.29;100.00
58239;BME280;44037;55.638;37.356;2023-07-13T03:04:09;98177.84;;;13.39;100.00
58239;BME280;44037;55.638;37.356;2023-07-13T03:06:39;98183.59;;;13.53;100.00
58239;BME280;44037;55.638;37.356;2023-07-13T03:09:06;98187.09;;;13.52;100.00
58239;BME280;44037;55.638;37.356;2023-07-13T03:11:33;98183.78;;;13.45;100.00
58239;BME280;44037;55.638;37.356;2023-07-13T03:14:01;98187.94;;;13.52;100.00
58239;BME280;44037;55.638;37.356;2023-07-13T03:16:28;98181.63;;;13.61;100.00
58239;BME280;44037;55.638;37.356;2023-07-13T03:18:55;98180.47;;;13.73;100.00
58239;BME280;44037;55.638;37.356;2023-07-13T03:21:23;98181.16;;;13.80;100.00
58239;BME280;44037;55.638;37.356;2023-07-13T03:23:51;98184.78;;;13.74;100.00
58239;BME280;44037;55.638;37.356;2023-07-13T03:26:20;98187.31;;;13.77;100.00
58239;BME280;44037;55.638;37.356;2023-07-13T03:28:47;98187.81;;;13.90;100.00
58239;BME280;44037;55.638;37.356;2023-07-13T03:31:16;98196.91;;;14.07;100.00
58239;BME280;44037;55.638;37.356;2023-07-13T03:33:44;98192.16;;;14.21;100.00
58239;BME280;44037;55.638;37.356;2023-07-13T03:36:14;98200.78;;;14.23;100.00
58239;BME280;44037;55.638;37.356;2023-07-13T03:38:45;98194.56;;;14.27;100.00
58239;BME280;44037;55.638;37.356;2023-07-13T03:41:14;98184.44;;;14.48;100.00
58239;BME280;44037;55.638;37.356;2023-07-13T03:43:41;98181.06;;;14.74;100.00
58239;BME280;44037;55.638;37.356;2023-07-13T03:46:08;98181.94;;;15.02;100.00
58239;BME280;44037;55.638;37.356;2023-07-13T03:48:36;98181.50;;;15.16;100.00
58239;BME280;44037;55.638;37.356;2023-07-13T03:51:05;98172.00;;;15.13;100.00
58239;BME280;44037;55.638;37.356;2023-07-13T03:53:32;98183.00;;;15.23;100.00
58239;BME280;44037;55.638;37.356;2023-07-13T03:56:00;98185.03;;;15.40;100.00
58239;BME280;44037;55.638;37.356;2023-07-13T03:58:31;98182.88;;;15.53;100.00
58239;BME280;44037;55.638;37.356;2023-07-13T04:01:00;98186.88;;;15.63;100.00
58239;BME280;44037;55.638;37.356;2023-07-13T04:03:28;98190.97;;;15.45;100.00
58239;BME280;44037;55.638;37.356;2023-07-13T04:05:58;98187.38;;;15.23;100.00
58239;BME280;44037;55.638;37.356;2023-07-13T04:08:27;98196.09;;;15.22;100.00
58239;BME280;44037;55.638;37.356;2023-07-13T04:10:54;98194.06;;;15.30;100.00
58239;BME280;44037;55.638;37.356;2023-07-13T04:13:22;98181.78;;;15.33;100.00
58239;BME280;44037;55.638;37.356;2023-07-13T04:15:51;98187.38;;;15.23;100.00
58239;BME280;44037;55.638;37.356;2023-07-13T04:18:19;98183.84;;;14.97;100.00
58239;BME280;44037;55.638;37.356;2023-07-13T04:20:47;98190.34;;;14.83;100.00
58239;BME280;44037;55.638;37.356;2023-07-13T04:23:15;98188.66;;;14.81;100.00
58239;BME280;44037;55.638;37.356;2023-07-13T04:25:43;98193.03;;;14.80;100.00
58239;BME280;44037;55.638;37.356;2023-07-13T04:28:11;98192.25;;;14.78;100.00
58239;BME280;44037;55.638;37.356;2023-07-13T04:30:38;98196.09;;;14.65;100.00
58239;BME280;44037;55.638;37.356;2023-07-13T04:33:07;98205.22;;;14.50;100.00
58239;BME280;44037;55.638;37.356;2023-07-13T04:35:35;98208.69;;;14.50;100.00
58239;BME280;44037;55.638;37.356;2023-07-13T04:38:03;98203.97;;;14.63;100.00
58239;BME280;44037;55.638;37.356;2023-07-13T04:40:31;98202.50;;;14.84;100.00
58239;BME280;44037;55.638;37.356;2023-07-13T04:42:58;98200.81;;;15.10;100.00
58239;BME280;44037;55.638;37.356;2023-07-13T04:45:25;98196.75;;;15.28;100.00
58239;BME280;44037;55.638;37.356;2023-07-13T04:47:53;98196.84;;;15.50;100.00
58239;BME280;44037;55.638;37.356;2023-07-13T04:50:21;98195.88;;;15.80;100.00
58239;BME280;44037;55.638;37.356;2023-07-13T04:52:49;98207.50;;;16.20;100.00
58239;BME280;44037;55.638;37.356;2023-07-13T04:55:17;98192.22;;;16.57;100.00
58239;BME280;44037;55.638;37.356;2023-07-13T04:57:45;98193.53;;;16.69;100.00
58239;BME280;44037;55.638;37.356;2023-07-13T05:00:14;98195.63;;;16.59;100.00
58239;BME280;44037;55.638;37.356;2023-07-13T05:02:44;98196.19;;;16.67;100.00
58239;BME280;44037;55.638;37.356;2023-07-13T05:05:12;98197.91;;;16.91;100.00
58239;BME280;44037;55.638;37.356;2023-07-13T05:07:41;98189.03;;;17.17;100.00
58239;BME280;44037;55.638;37.356;2023-07-13T05:10:09;98193.00;;;17.48;99.31
58239;BME280;44037;55.638;37.356;2023-07-13T05:12:36;98193.84;;;17.48;95.87
58239;BME280;44037;55.638;37.356;2023-07-13T05:15:04;98190.56;;;17.43;98.04
58239;BME280;44037;55.638;37.356;2023-07-13T05:17:32;98188.06;;;17.61;98.30
58239;BME280;44037;55.638;37.356;2023-07-13T05:19:59;98175.94;;;17.79;97.29
58239;BME280;44037;55.638;37.356;2023-07-13T05:22:26;98176.16;;;17.95;97.20
58239;BME280;44037;55.638;37.356;2023-07-13T05:24:55;98176.16;;;17.95;93.33
58239;BME280;44037;55.638;37.356;2023-07-13T05:27:22;98178.47;;;17.61;93.43
58239;BME280;44037;55.638;37.356;2023-07-13T05:29:49;98174.28;;;17.57;95.69
58239;BME280;44037;55.638;37.356;2023-07-13T05:32:18;98181.53;;;17.92;95.15
58239;BME280;44037;55.638;37.356;2023-07-13T05:34:45;98182.75;;;18.44;93.02
58239;BME280;44037;55.638;37.356;2023-07-13T05:37:12;98183.31;;;18.87;90.46
58239;BME280;44037;55.638;37.356;2023-07-13T05:39:39;98187.16;;;18.99;85.78
58239;BME280;44037;55.638;37.356;2023-07-13T05:42:08;98185.88;;;18.88;86.86
58239;BME280;44037;55.638;37.356;2023-07-13T05:44:36;98186.88;;;18.86;87.51
58239;BME280;44037;55.638;37.356;2023-07-13T05:47:03;98187.31;;;18.96;88.32
58239;BME280;44037;55.638;37.356;2023-07-13T05:49:30;98185.78;;;19.09;85.54
58239;BME280;44037;55.638;37.356;2023-07-13T05:51:57;98186.09;;;19.21;84.39
58239;BME280;44037;55.638;37.356;2023-07-13T05:54:25;98179.53;;;19.12;85.03
58239;BME280;44037;55.638;37.356;2023-07-13T05:56:52;98177.06;;;19.26;85.56
58239;BME280;44037;55.638;37.356;2023-07-13T05:59:20;98174.53;;;19.60;84.74
58239;BME280;44037;55.638;37.356;2023-07-13T06:01:48;98166.47;;;19.98;84.52
58239;BME280;44037;55.638;37.356;2023-07-13T06:04:18;98168.03;;;20.34;81.65
58239;BME280;44037;55.638;37.356;2023-07-13T06:06:45;98165.84;;;20.42;75.42
58239;BME280;44037;55.638;37.356;2023-07-13T06:09:12;98161.97;;;20.00;74.74
58239;BME280;44037;55.638;37.356;2023-07-13T06:11:39;98168.94;;;20.01;76.98
58239;BME280;44037;55.638;37.356;2023-07-13T06:14:07;98157.25;;;20.23;76.34
58239;BME280;44037;55.638;37.356;2023-07-13T06:16:35;98162.00;;;20.48;75.35
58239;BME280;44037;55.638;37.356;2023-07-13T06:19:02;98157.53;;;20.66;75.11
58239;BME280;44037;55.638;37.356;2023-07-13T06:21:29;98156.94;;;20.61;71.01
58239;BME280;44037;55.638;37.356;2023-07-13T06:23:56;98154.38;;;20.28;73.03
58239;BME280;44037;55.638;37.356;2023-07-13T06:26:24;98152.69;;;20.26;73.43
58239;BME280;44037;55.638;37.356;2023-07-13T06:28:51;98155.91;;;20.48;72.70
58239;BME280;44037;55.638;37.356;2023-07-13T06:31:18;98148.78;;;20.82;72.27
58239;BME280;44037;55.638;37.356;2023-07-13T06:33:46;98151.78;;;21.22;69.69
58239;BME280;44037;55.638;37.356;2023-07-13T06:36:15;98147.28;;;21.24;66.96
58239;BME280;44037;55.638;37.356;2023-07-13T06:38:42;98146.47;;;21.08;69.37
58239;BME280;44037;55.638;37.356;2023-07-13T06:41:09;98143.09;;;21.20;71.44
58239;BME280;44037;55.638;37.356;2023-07-13T06:43:36;98139.84;;;21.31;69.77
58239;BME280;44037;55.638;37.356;2023-07-13T06:46:04;98139.97;;;21.29;70.17
58239;BME280;44037;55.638;37.356;2023-07-13T06:48:31;98150.88;;;21.38;67.11
58239;BME280;44037;55.638;37.356;2023-07-13T06:50:59;98144.16;;;21.17;66.54
58239;BME280;44037;55.638;37.356;2023-07-13T06:53:26;98151.66;;;20.93;69.02
58239;BME280;44037;55.638;37.356;2023-07-13T06:55:53;98146.22;;;20.96;68.69
58239;BME280;44037;55.638;37.356;2023-07-13T06:58:21;98147.06;;;21.13;68.82
58239;BME280;44037;55.638;37.356;2023-07-13T07:00:50;98144.81;;;21.21;66.87
58239;BME280;44037;55.638;37.356;2023-07-13T07:03:18;98150.66;;;20.96;65.22
58239;BME280;44037;55.638;37.356;2023-07-13T07:05:45;98149.47;;;20.37;68.49
58239;BME280;44037;55.638;37.356;2023-07-13T07:08:14;98151.81;;;20.10;69.92
58239;BME280;44037;55.638;37.356;2023-07-13T07:10:41;98149.53;;;20.20;70.46
58239;BME280;44037;55.638;37.356;2023-07-13T07:13:09;98147.41;;;20.42;69.31
58239;BME280;44037;55.638;37.356;2023-07-13T07:15:36;98144.63;;;20.46;69.52
58239;BME280;44037;55.638;37.356;2023-07-13T07:18:03;98150.66;;;20.32;70.26
58239;BME280;44037;55.638;37.356;2023-07-13T07:20:30;98145.88;;;20.06;71.86
58239;BME280;44037;55.638;37.356;2023-07-13T07:22:58;98147.72;;;20.04;73.54
58239;BME280;44037;55.638;37.356;2023-07-13T07:25:27;98148.09;;;20.30;73.70
58239;BME280;44037;55.638;37.356;2023-07-13T07:27:57;98153.28;;;20.64;72.81
58239;BME280;44037;55.638;37.356;2023-07-13T07:30:25;98157.19;;;20.89;70.49
58239;BME280;44037;55.638;37.356;2023-07-13T07:32:52;98153.91;;;20.85;69.22
58239;BME280;44037;55.638;37.356;2023-07-13T07:35:19;98167.97;;;20.52;70.14
58239;BME280;44037;55.638;37.356;2023-07-13T07:37:46;98158.44;;;20.33;71.50
58239;BME280;44037;55.638;37.356;2023-07-13T07:40:14;98167.78;;;20.39;71.12
58239;BME280;44037;55.638;37.356;2023-07-13T07:42:42;98167.47;;;20.45;71.22
58239;BME280;44037;55.638;37.356;2023-07-13T07:45:10;98172.31;;;20.53;70.99
58239;BME280;44037;55.638;37.356;2023-07-13T07:47:37;98174.16;;;20.51;71.07
58239;BME280;44037;55.638;37.356;2023-07-13T07:50:05;98168.56;;;20.25;70.57
58239;BME280;44037;55.638;37.356;2023-07-13T07:52:33;98178.44;;;20.04;70.32
58239;BME280;44037;55.638;37.356;2023-07-13T07:55:00;98177.38;;;19.90;71.30
58239;BME280;44037;55.638;37.356;2023-07-13T07:57:29;98176.81;;;19.84;72.57
58239;BME280;44037;55.638;37.356;2023-07-13T07:59:58;98194.16;;;19.88;72.68
58239;BME280;44037;55.638;37.356;2023-07-13T08:02:25;98177.75;;;20.00;71.55
58239;BME280;44037;55.638;37.356;2023-07-13T08:04:53;98195.88;;;19.89;72.11
58239;BME280;44037;55.638;37.356;2023-07-13T08:07:20;98194.91;;;19.72;73.45
58239;BME280;44037;55.638;37.356;2023-07-13T08:09:47;98179.78;;;19.77;74.41
58239;BME280;44037;55.638;37.356;2023-07-13T08:12:17;98171.03;;;19.94;74.76
58239;BME280;44037;55.638;37.356;2023-07-13T08:14:45;98172.53;;;20.16;74.96
58239;BME280;44037;55.638;37.356;2023-07-13T08:17:13;98176.88;;;20.33;74.10
58239;BME280;44037;55.638;37.356;2023-07-13T08:19:40;98181.09;;;20.20;73.08
58239;BME280;44037;55.638;37.356;2023-07-13T08:22:07;98180.94;;;19.89;75.08
58239;BME280;44037;55.638;37.356;2023-07-13T08:24:34;98179.84;;;19.76;76.68
58239;BME280;44037;55.638;37.356;2023-07-13T08:27:01;98189.66;;;19.72;77.76
58239;BME280;44037;55.638;37.356;2023-07-13T08:29:28;98189.81;;;19.69;77.49
58239;BME280;44037;55.638;37.356;2023-07-13T08:31:57;98179.16;;;19.72;77.82
58239;BME280;44037;55.638;37.356;2023-07-13T08:34:26;98177.94;;;19.62;78.37
58239;BME280;44037;55.638;37.356;2023-07-13T08:36:53;98170.19;;;19.41;80.09
58239;BME280;44037;55.638;37.356;2023-07-13T08:39:20;98165.47;;;19.48;80.72
58239;BME280;44037;55.638;37.356;2023-07-13T08:41:50;98173.84;;;19.56;80.58
58239;BME280;44037;55.638;37.356;2023-07-13T08:44:24;98172.97;;;19.56;81.06
58239;BME280;44037;55.638;37.356;2023-07-13T08:46:53;98179.88;;;19.58;80.87
58239;BME280;44037;55.638;37.356;2023-07-13T08:49:23;98174.75;;;19.38;81.42
58239;BME280;44037;55.638;37.356;2023-07-13T08:51:56;98185.47;;;19.15;82.70
58239;BME280;44037;55.638;37.356;2023-07-13T08:54:30;98181.41;;;19.27;83.16
58239;BME280;44037;55.638;37.356;2023-07-13T08:56:59;98177.34;;;19.39;83.40
58239;BME280;44037;55.638;37.356;2023-07-13T08:59:30;98176.22;;;19.61;82.86
58239;BME280;44037;55.638;37.356;2023-07-13T09:02:14;98184.56;;;19.69;82.27
58239;BME280;44037;55.638;37.356;2023-07-13T09:04:46;98183.66;;;19.53;83.06
58239;BME280;44037;55.638;37.356;2023-07-13T09:07:25;98182.72;;;19.36;85.41
58239;BME280;44037;55.638;37.356;2023-07-13T09:10:04;98183.81;;;19.49;85.76
58239;BME280;44037;55.638;37.356;2023-07-13T09:12:43;98186.88;;;19.75;85.81
58239;BME280;44037;55.638;37.356;2023-07-13T09:15:23;98184.06;;;20.14;84.14
58239;BME280;44037;55.638;37.356;2023-07-13T09:17:52;98188.13;;;20.19;80.49
58239;BME280;44037;55.638;37.356;2023-07-13T09:20:25;98183.16;;;19.97;81.24
58239;BME280;44037;55.638;37.356;2023-07-13T09:22:56;98188.56;;;19.94;83.47
58239;BME280;44037;55.638;37.356;2023-07-13T09:25:29;98196.63;;;19.91;85.42
58239;BME280;44037;55.638;37.356;2023-07-13T09:28:00;98196.53;;;19.92;86.01
58239;BME280;44037;55.638;37.356;2023-07-13T09:30:34;98196.28;;;19.79;81.00
58239;BME280;44037;55.638;37.356;2023-07-13T09:33:04;98204.34;;;19.24;83.65
58239;BME280;44037;55.638;37.356;2023-07-13T09:35:31;98205.69;;;18.96;86.17
58239;BME280;44037;55.638;37.356;2023-07-13T09:38:10;98213.63;;;18.75;86.78
58239;BME280;44037;55.638;37.356;2023-07-13T09:40:44;98214.34;;;18.60;88.18
58239;BME280;44037;55.638;37.356;2023-07-13T09:43:15;98225.25;;;18.50;86.43
58239;BME280;44037;55.638;37.356;2023-07-13T09:45:46;98220.38;;;18.22;87.86
58239;BME280;44037;55.638;37.356;2023-07-13T09:48:16;98225.94;;;17.95;90.71
58239;BME280;44037;55.638;37.356;2023-07-13T09:50:44;98219.91;;;17.93;92.11
58239;BME280;44037;55.638;37.356;2023-07-13T09:53:14;98222.22;;;18.01;92.80
58239;BME280;44037;55.638;37.356;2023-07-13T09:55:43;98221.94;;;18.07;92.15
58239;BME280;44037;55.638;37.356;2023-07-13T09:58:13;98223.56;;;18.09;92.92
58239;BME280;44037;55.638;37.356;2023-07-13T10:00:41;98223.06;;;18.01;92.89
58239;BME280;44037;55.638;37.356;2023-07-13T10:03:18;98228.50;;;17.76;96.80
58239;BME280;44037;55.638;37.356;2023-07-13T10:05:47;98222.91;;;17.63;98.25
58239;BME280;44037;55.638;37.356;2023-07-13T10:08:20;98222.59;;;17.50;97.31
58239;BME280;44037;55.638;37.356;2023-07-13T10:10:52;98215.16;;;17.39;97.94
58239;BME280;44037;55.638;37.356;2023-07-13T10:13:30;98214.69;;;17.29;100.00
58239;BME280;44037;55.638;37.356;2023-07-13T10:15:59;98220.31;;;17.20;100.00
58239;BME280;44037;55.638;37.356;2023-07-13T10:18:28;98217.75;;;16.96;100.00
58239;BME280;44037;55.638;37.356;2023-07-13T10:21:08;98219.00;;;16.86;100.00
58239;BME280;44037;55.638;37.356;2023-07-13T10:23:39;98219.91;;;16.85;100.00
58239;BME280;44037;55.638;37.356;2023-07-13T10:26:14;98215.41;;;16.88;100.00
58239;BME280;44037;55.638;37.356;2023-07-13T10:28:45;98217.84;;;16.95;100.00
58239;BME280;44037;55.638;37.356;2023-07-13T10:31:14;98222.09;;;16.97;100.00
58239;BME280;44037;55.638;37.356;2023-07-13T10:33:42;98219.81;;;16.88;100.00
58239;BME280;44037;55.638;37.356;2023-07-13T10:36:17;98213.03;;;16.82;100.00
58239;BME280;44037;55.638;37.356;2023-07-13T10:38:50;98223.34;;;16.87;100.00
58239;BME280;44037;55.638;37.356;2023-07-13T10:41:21;98220.56;;;16.90;100.00
58239;BME280;44037;55.638;37.356;2023-07-13T10:43:51;98227.34;;;16.96;100.00
58239;BME280;44037;55.638;37.356;2023-07-13T10:46:22;98225.63;;;16.96;100.00
58239;BME280;44037;55.638;37.356;2023-07-13T10:48:51;98233.19;;;16.80;100.00
58239;BME280;44037;55.638;37.356;2023-07-13T10:51:20;98233.50;;;16.71;100.00
58239;BME280;44037;55.638;37.356;2023-07-13T10:54:16;98239.84;;;16.65;100.00
58239;BME280;44037;55.638;37.356;2023-07-13T10:56:44;98246.16;;;16.59;100.00
58239;BME280;44037;55.638;37.356;2023-07-13T10:59:14;98243.78;;;16.53;100.00
58239;BME280;44037;55.638;37.356;2023-07-13T11:01:50;98240.88;;;16.37;100.00
58239;BME280;44037;55.638;37.356;2023-07-13T11:04:20;98234.78;;;16.13;100.00
58239;BME280;44037;55.638;37.356;2023-07-13T11:06:50;98239.38;;;16.06;100.00
58239;BME280;44037;55.638;37.356;2023-07-13T11:09:36;98238.38;;;16.10;100.00
58239;BME280;44037;55.638;37.356;2023-07-13T11:12:10;98226.09;;;16.12;100.00
58239;BME280;44037;55.638;37.356;2023-07-13T11:15:11;98235.41;;;16.20;100.00
58239;BME280;44037;55.638;37.356;2023-07-13T11:17:48;98226.94;;;16.13;100.00
58239;BME280;44037;55.638;37.356;2023-07-13T11:23:18;98236.22;;;15.96;100.00
58239;BME280;44037;55.638;37.356;2023-07-13T11:25:47;98229.09;;;16.02;100.00
58239;BME280;44037;55.638;37.356;2023-07-13T11:28:22;98219.28;;;16.08;100.00
58239;BME280;44037;55.638;37.356;2023-07-13T11:31:01;98225.31;;;16.10;100.00
58239;BME280;44037;55.638;37.356;2023-07-13T11:33:50;98222.22;;;15.99;100.00
58239;BME280;44037;55.638;37.356;2023-07-13T11:36:19;98220.44;;;16.00;100.00
58239;BME280;44037;55.638;37.356;2023-07-13T11:38:57;98214.84;;;16.10;100.00
58239;BME280;44037;55.638;37.356;2023-07-13T11:41:28;98215.06;;;16.28;100.00
58239;BME280;44037;55.638;37.356;2023-07-13T11:44:07;98216.16;;;16.46;100.00
58239;BME280;44037;55.638;37.356;2023-07-13T11:46:34;98225.41;;;16.55;100.00
58239;BME280;44037;55.638;37.356;2023-07-13T11:49:04;98224.84;;;16.47;100.00
58239;BME280;44037;55.638;37.356;2023-07-13T11:51:33;98223.03;;;16.49;100.00
58239;BME280;44037;55.638;37.356;2023-07-13T11:54:03;98231.31;;;16.60;100.00
58239;BME280;44037;55.638;37.356;2023-07-13T11:56:34;98227.44;;;16.70;100.00
58239;BME280;44037;55.638;37.356;2023-07-13T11:59:06;98221.31;;;16.71;100.00
58239;BME280;44037;55.638;37.356;2023-07-13T12:01:36;98227.56;;;16.67;100.00
58239;BME280;44037;55.638;37.356;2023-07-13T12:04:20;98222.97;;;16.50;100.00
58239;BME280;44037;55.638;37.356;2023-07-13T12:06:55;98228.44;;;16.44;100.00
58239;BME280;44037;55.638;37.356;2023-07-13T12:09:22;98215.25;;;16.47;100.00
58239;BME280;44037;55.638;37.356;2023-07-13T12:11:52;98219.72;;;16.43;100.00
58239;BME280;44037;55.638;37.356;2023-07-13T12:14:19;98225.03;;;16.42;100.00
58239;BME280;44037;55.638;37.356;2023-07-13T12:16:50;98222.81;;;16.31;100.00
58239;BME280;44037;55.638;37.356;2023-07-13T12:19:20;98227.56;;;16.20;100.00
58239;BME280;44037;55.638;37.356;2023-07-13T12:21:48;98231.09;;;16.19;100.00
58239;BME280;44037;55.638;37.356;2023-07-13T12:24:17;98227.56;;;16.20;100.00
58239;BME280;44037;55.638;37.356;2023-07-13T12:26:48;98217.19;;;16.18;100.00
58239;BME280;44037;55.638;37.356;2023-07-13T12:29:18;98219.03;;;16.15;100.00
58239;BME280;44037;55.638;37.356;2023-07-13T12:31:47;98218.09;;;15.92;100.00
58239;BME280;44037;55.638;37.356;2023-07-13T12:34:16;98209.34;;;15.68;100.00
58239;BME280;44037;55.638;37.356;2023-07-13T12:36:50;98209.50;;;15.63;100.00
58239;BME280;44037;55.638;37.356;2023-07-13T12:39:20;98200.75;;;15.64;100.00
58239;BME280;44037;55.638;37.356;2023-07-13T12:41:49;98201.47;;;15.69;100.00
58239;BME280;44037;55.638;37.356;2023-07-13T12:44:23;98197.31;;;15.63;100.00
58239;BME280;44037;55.638;37.356;2023-07-13T12:46:57;98198.78;;;15.45;100.00
58239;BME280;44037;55.638;37.356;2023-07-13T12:49:28;98204.03;;;15.44;100.00
58239;BME280;44037;55.638;37.356;2023-07-13T12:52:00;98203.75;;;15.53;100.00
58239;BME280;44037;55.638;37.356;2023-07-13T12:54:29;98204.28;;;15.63;100.00
58239;BME280;44037;55.638;37.356;2023-07-13T12:56:58;98199.00;;;15.64;100.00
58239;BME280;44037;55.638;37.356;2023-07-13T12:59:32;98212.50;;;15.50;100.00